Hadley, United Kingdom
Current Conditions -  °F | °C
As of 7:50 AM on Sunday 23 Nov 2014 (Local Time) from EGOS Reporting Station
Broken Clouds Broken Clouds  
Wind Chill:   Ceiling: 13000
Heat Index:   Visibility: 6mi
Dew Point:   Wind: 6mph
Humidity: 93%   Direction: 270°W
Pressure: 30.03"   Gusts: NA
Location:  52.7°N, 2.48°W
Report Text: EGOS 230750Z AUTO 27005KT 9999 FEW021/// SCT039/// BKN130/// 07/06 Q1017
Loading
Personal Weather Stations






























Interactive Weather Map New forecast layout! Learn more

10-Day Weather Forecast

Advertisements
Track Severe Weather on mobile